sensor_id;sensor_type;location;lat;lon;timestamp;P1;durP1;ratioP1;P2;durP2;ratioP2
3523;SDS011;1776;53.330;11.498;2023-05-10T00:00:50;5.23;;;3.43;;
3523;SDS011;1776;53.330;11.498;2023-05-10T00:03:15;6.40;;;4.43;;
3523;SDS011;1776;53.330;11.498;2023-05-10T00:05:41;4.40;;;3.60;;
3523;SDS011;1776;53.330;11.498;2023-05-10T00:08:06;4.57;;;3.50;;
3523;SDS011;1776;53.330;11.498;2023-05-10T00:10:31;6.87;;;3.30;;
3523;SDS011;1776;53.330;11.498;2023-05-10T00:12:57;6.97;;;3.30;;
3523;SDS011;1776;53.330;11.498;2023-05-10T00:15:22;4.27;;;3.83;;
3523;SDS011;1776;53.330;11.498;2023-05-10T00:17:47;4.90;;;3.57;;
3523;SDS011;1776;53.330;11.498;2023-05-10T00:20:13;3.43;;;3.10;;
3523;SDS011;1776;53.330;11.498;2023-05-10T00:22:38;3.87;;;3.37;;
3523;SDS011;1776;53.330;11.498;2023-05-10T00:25:03;3.00;;;2.70;;
3523;SDS011;1776;53.330;11.498;2023-05-10T00:27:29;5.90;;;4.30;;
3523;SDS011;1776;53.330;11.498;2023-05-10T00:29:54;4.70;;;3.40;;
3523;SDS011;1776;53.330;11.498;2023-05-10T00:32:20;4.37;;;3.97;;
3523;SDS011;1776;53.330;11.498;2023-05-10T00:34:45;12.40;;;3.80;;
3523;SDS011;1776;53.330;11.498;2023-05-10T00:37:10;7.00;;;3.90;;
3523;SDS011;1776;53.330;11.498;2023-05-10T00:39:36;8.83;;;3.67;;
3523;SDS011;1776;53.330;11.498;2023-05-10T00:42:01;6.67;;;3.97;;
3523;SDS011;1776;53.330;11.498;2023-05-10T00:44:26;3.93;;;3.40;;
3523;SDS011;1776;53.330;11.498;2023-05-10T00:46:52;7.50;;;3.93;;
3523;SDS011;1776;53.330;11.498;2023-05-10T00:49:17;5.90;;;3.80;;
3523;SDS011;1776;53.330;11.498;2023-05-10T00:51:43;4.90;;;3.17;;
3523;SDS011;1776;53.330;11.498;2023-05-10T00:54:12;7.40;;;3.60;;
3523;SDS011;1776;53.330;11.498;2023-05-10T00:56:40;3.80;;;3.40;;
3523;SDS011;1776;53.330;11.498;2023-05-10T00:59:06;6.03;;;3.53;;
3523;SDS011;1776;53.330;11.498;2023-05-10T01:01:35;4.67;;;4.20;;
3523;SDS011;1776;53.330;11.498;2023-05-10T01:04:01;8.70;;;3.70;;
3523;SDS011;1776;53.330;11.498;2023-05-10T01:06:27;5.33;;;3.90;;
3523;SDS011;1776;53.330;11.498;2023-05-10T01:08:53;5.87;;;3.83;;
3523;SDS011;1776;53.330;11.498;2023-05-10T01:11:18;6.50;;;3.63;;
3523;SDS011;1776;53.330;11.498;2023-05-10T01:13:44;4.50;;;3.90;;
3523;SDS011;1776;53.330;11.498;2023-05-10T01:16:16;4.27;;;3.57;;
3523;SDS011;1776;53.330;11.498;2023-05-10T01:18:41;5.77;;;3.77;;
3523;SDS011;1776;53.330;11.498;2023-05-10T01:21:14;5.10;;;4.37;;
3523;SDS011;1776;53.330;11.498;2023-05-10T01:24:17;5.50;;;3.97;;
3523;SDS011;1776;53.330;11.498;2023-05-10T01:27:20;5.10;;;3.90;;
3523;SDS011;1776;53.330;11.498;2023-05-10T01:35:48;5.13;;;4.63;;
3523;SDS011;1776;53.330;11.498;2023-05-10T01:38:20;5.70;;;3.90;;
3523;SDS011;1776;53.330;11.498;2023-05-10T01:40:58;9.43;;;3.60;;
3523;SDS011;1776;53.330;11.498;2023-05-10T01:43:37;10.87;;;3.93;;
3523;SDS011;1776;53.330;11.498;2023-05-10T01:46:20;5.70;;;4.00;;
3523;SDS011;1776;53.330;11.498;2023-05-10T01:48:54;6.07;;;3.83;;
3523;SDS011;1776;53.330;11.498;2023-05-10T01:51:26;4.53;;;4.00;;
3523;SDS011;1776;53.330;11.498;2023-05-10T01:53:58;4.13;;;3.70;;
3523;SDS011;1776;53.330;11.498;2023-05-10T01:56:26;4.77;;;3.97;;
3523;SDS011;1776;53.330;11.498;2023-05-10T01:58:54;5.80;;;3.70;;
3523;SDS011;1776;53.330;11.498;2023-05-10T02:01:21;4.77;;;4.27;;
3523;SDS011;1776;53.330;11.498;2023-05-10T02:03:46;5.17;;;4.10;;
3523;SDS011;1776;53.330;11.498;2023-05-10T02:06:14;5.10;;;3.83;;
3523;SDS011;1776;53.330;11.498;2023-05-10T02:08:43;10.23;;;4.23;;
3523;SDS011;1776;53.330;11.498;2023-05-10T02:11:10;4.70;;;3.77;;
3523;SDS011;1776;53.330;11.498;2023-05-10T02:13:38;7.30;;;4.03;;
3523;SDS011;1776;53.330;11.498;2023-05-10T02:16:04;4.40;;;4.00;;
3523;SDS011;1776;53.330;11.498;2023-05-10T02:18:30;4.60;;;4.20;;
3523;SDS011;1776;53.330;11.498;2023-05-10T02:20:58;6.57;;;4.43;;
3523;SDS011;1776;53.330;11.498;2023-05-10T02:23:24;7.93;;;3.93;;
3523;SDS011;1776;53.330;11.498;2023-05-10T02:25:51;3.50;;;3.20;;
3523;SDS011;1776;53.330;11.498;2023-05-10T02:28:18;7.07;;;4.03;;
3523;SDS011;1776;53.330;11.498;2023-05-10T02:30:45;5.03;;;4.00;;
3523;SDS011;1776;53.330;11.498;2023-05-10T02:33:12;5.23;;;4.30;;
3523;SDS011;1776;53.330;11.498;2023-05-10T02:35:39;5.23;;;4.73;;
3523;SDS011;1776;53.330;11.498;2023-05-10T02:38:05;6.13;;;4.40;;
3523;SDS011;1776;53.330;11.498;2023-05-10T02:40:32;5.63;;;4.13;;
3523;SDS011;1776;53.330;11.498;2023-05-10T02:42:58;5.77;;;4.07;;
3523;SDS011;1776;53.330;11.498;2023-05-10T02:45:27;19.30;;;6.40;;
3523;SDS011;1776;53.330;11.498;2023-05-10T02:47:55;5.20;;;4.10;;
3523;SDS011;1776;53.330;11.498;2023-05-10T02:50:21;6.20;;;4.70;;
3523;SDS011;1776;53.330;11.498;2023-05-10T02:52:47;5.13;;;4.33;;
3523;SDS011;1776;53.330;11.498;2023-05-10T02:55:17;5.67;;;4.10;;
3523;SDS011;1776;53.330;11.498;2023-05-10T02:57:48;7.37;;;4.37;;
3523;SDS011;1776;53.330;11.498;2023-05-10T03:00:17;6.30;;;4.53;;
3523;SDS011;1776;53.330;11.498;2023-05-10T03:02:42;6.10;;;4.90;;
3523;SDS011;1776;53.330;11.498;2023-05-10T03:05:08;7.23;;;4.60;;
3523;SDS011;1776;53.330;11.498;2023-05-10T03:07:33;4.83;;;4.00;;
3523;SDS011;1776;53.330;11.498;2023-05-10T03:09:59;5.20;;;4.43;;
3523;SDS011;1776;53.330;11.498;2023-05-10T03:12:32;6.43;;;4.33;;
3523;SDS011;1776;53.330;11.498;2023-05-10T03:17:48;5.80;;;4.13;;
3523;SDS011;1776;53.330;11.498;2023-05-10T03:20:29;6.00;;;4.20;;
3523;SDS011;1776;53.330;11.498;2023-05-10T03:23:04;6.03;;;3.83;;
3523;SDS011;1776;53.330;11.498;2023-05-10T03:25:36;8.10;;;4.10;;
3523;SDS011;1776;53.330;11.498;2023-05-10T03:28:02;6.73;;;5.03;;
3523;SDS011;1776;53.330;11.498;2023-05-10T03:30:29;6.43;;;4.17;;
3523;SDS011;1776;53.330;11.498;2023-05-10T03:32:55;5.50;;;4.30;;
3523;SDS011;1776;53.330;11.498;2023-05-10T03:35:21;7.53;;;4.73;;
3523;SDS011;1776;53.330;11.498;2023-05-10T03:37:48;6.63;;;4.60;;
3523;SDS011;1776;53.330;11.498;2023-05-10T03:40:13;4.80;;;4.40;;
3523;SDS011;1776;53.330;11.498;2023-05-10T03:42:39;6.40;;;4.90;;
3523;SDS011;1776;53.330;11.498;2023-05-10T03:45:04;4.80;;;4.10;;
3523;SDS011;1776;53.330;11.498;2023-05-10T03:47:30;10.13;;;4.60;;
3523;SDS011;1776;53.330;11.498;2023-05-10T03:49:56;6.03;;;4.50;;
3523;SDS011;1776;53.330;11.498;2023-05-10T03:52:21;9.00;;;4.57;;
3523;SDS011;1776;53.330;11.498;2023-05-10T03:54:47;6.30;;;4.60;;
3523;SDS011;1776;53.330;11.498;2023-05-10T03:57:12;7.00;;;4.30;;
3523;SDS011;1776;53.330;11.498;2023-05-10T03:59:37;5.90;;;4.57;;
3523;SDS011;1776;53.330;11.498;2023-05-10T04:02:02;6.93;;;4.73;;
3523;SDS011;1776;53.330;11.498;2023-05-10T04:04:28;4.60;;;4.20;;
3523;SDS011;1776;53.330;11.498;2023-05-10T04:06:53;5.00;;;4.30;;
3523;SDS011;1776;53.330;11.498;2023-05-10T04:09:18;8.60;;;4.40;;
3523;SDS011;1776;53.330;11.498;2023-05-10T04:11:43;5.23;;;4.63;;
3523;SDS011;1776;53.330;11.498;2023-05-10T04:14:09;4.87;;;3.83;;
3523;SDS011;1776;53.330;11.498;2023-05-10T04:16:34;5.20;;;4.70;;
3523;SDS011;1776;53.330;11.498;2023-05-10T04:18:59;6.60;;;4.50;;
3523;SDS011;1776;53.330;11.498;2023-05-10T04:21:24;9.50;;;4.90;;
3523;SDS011;1776;53.330;11.498;2023-05-10T04:23:50;5.20;;;4.70;;
3523;SDS011;1776;53.330;11.498;2023-05-10T04:26:15;6.47;;;5.30;;
3523;SDS011;1776;53.330;11.498;2023-05-10T04:28:40;8.27;;;6.57;;
3523;SDS011;1776;53.330;11.498;2023-05-10T04:31:06;8.70;;;5.60;;
3523;SDS011;1776;53.330;11.498;2023-05-10T04:33:33;6.70;;;4.40;;
3523;SDS011;1776;53.330;11.498;2023-05-10T04:35:59;7.47;;;4.57;;
3523;SDS011;1776;53.330;11.498;2023-05-10T04:38:24;4.77;;;4.27;;
3523;SDS011;1776;53.330;11.498;2023-05-10T04:40:50;5.43;;;4.47;;
3523;SDS011;1776;53.330;11.498;2023-05-10T04:43:15;4.63;;;3.77;;
3523;SDS011;1776;53.330;11.498;2023-05-10T04:45:40;5.40;;;4.23;;
3523;SDS011;1776;53.330;11.498;2023-05-10T04:48:05;5.77;;;4.90;;
3523;SDS011;1776;53.330;11.498;2023-05-10T04:50:31;6.70;;;4.70;;
3523;SDS011;1776;53.330;11.498;2023-05-10T04:52:56;7.93;;;5.80;;
3523;SDS011;1776;53.330;11.498;2023-05-10T04:55:22;5.83;;;4.27;;
3523;SDS011;1776;53.330;11.498;2023-05-10T04:57:47;4.57;;;4.00;;
3523;SDS011;1776;53.330;11.498;2023-05-10T05:00:12;5.40;;;3.90;;
3523;SDS011;1776;53.330;11.498;2023-05-10T05:02:38;8.13;;;5.07;;
3523;SDS011;1776;53.330;11.498;2023-05-10T05:05:06;6.30;;;4.50;;
3523;SDS011;1776;53.330;11.498;2023-05-10T05:07:32;5.43;;;4.93;;
3523;SDS011;1776;53.330;11.498;2023-05-10T05:09:57;6.03;;;4.40;;
3523;SDS011;1776;53.330;11.498;2023-05-10T05:12:23;6.23;;;4.50;;
3523;SDS011;1776;53.330;11.498;2023-05-10T05:14:48;6.63;;;5.67;;
3523;SDS011;1776;53.330;11.498;2023-05-10T05:17:13;9.73;;;5.90;;
3523;SDS011;1776;53.330;11.498;2023-05-10T05:19:38;6.30;;;4.90;;
3523;SDS011;1776;53.330;11.498;2023-05-10T05:22:06;7.70;;;5.33;;
3523;SDS011;1776;53.330;11.498;2023-05-10T05:24:35;5.10;;;4.60;;
3523;SDS011;1776;53.330;11.498;2023-05-10T05:27:02;5.90;;;5.30;;
3523;SDS011;1776;53.330;11.498;2023-05-10T05:29:27;6.73;;;4.97;;
3523;SDS011;1776;53.330;11.498;2023-05-10T05:31:53;5.50;;;5.00;;
3523;SDS011;1776;53.330;11.498;2023-05-10T05:34:18;6.77;;;5.20;;
3523;SDS011;1776;53.330;11.498;2023-05-10T05:36:45;7.80;;;4.97;;
3523;SDS011;1776;53.330;11.498;2023-05-10T05:39:10;7.47;;;5.90;;
3523;SDS011;1776;53.330;11.498;2023-05-10T05:41:35;7.50;;;4.47;;
3523;SDS011;1776;53.330;11.498;2023-05-10T05:44:01;9.83;;;4.40;;
3523;SDS011;1776;53.330;11.498;2023-05-10T05:46:26;7.57;;;5.50;;
3523;SDS011;1776;53.330;11.498;2023-05-10T05:48:51;6.83;;;5.10;;
3523;SDS011;1776;53.330;11.498;2023-05-10T05:51:16;6.57;;;4.00;;
3523;SDS011;1776;53.330;11.498;2023-05-10T05:53:42;5.20;;;4.70;;
3523;SDS011;1776;53.330;11.498;2023-05-10T05:56:07;7.27;;;4.83;;
3523;SDS011;1776;53.330;11.498;2023-05-10T05:58:34;6.70;;;4.87;;
3523;SDS011;1776;53.330;11.498;2023-05-10T06:00:59;5.17;;;4.13;;
3523;SDS011;1776;53.330;11.498;2023-05-10T06:03:24;4.90;;;4.43;;
3523;SDS011;1776;53.330;11.498;2023-05-10T06:05:49;6.27;;;4.40;;
3523;SDS011;1776;53.330;11.498;2023-05-10T06:08:15;6.30;;;5.27;;
3523;SDS011;1776;53.330;11.498;2023-05-10T06:10:40;5.90;;;5.03;;
3523;SDS011;1776;53.330;11.498;2023-05-10T06:13:05;15.60;;;4.57;;
3523;SDS011;1776;53.330;11.498;2023-05-10T06:15:31;7.87;;;5.70;;
3523;SDS011;1776;53.330;11.498;2023-05-10T06:17:57;4.90;;;4.40;;
3523;SDS011;1776;53.330;11.498;2023-05-10T06:20:22;6.67;;;4.67;;
3523;SDS011;1776;53.330;11.498;2023-05-10T06:22:48;5.07;;;4.57;;
3523;SDS011;1776;53.330;11.498;2023-05-10T06:25:13;9.83;;;5.20;;
3523;SDS011;1776;53.330;11.498;2023-05-10T06:27:39;13.63;;;5.20;;
3523;SDS011;1776;53.330;11.498;2023-05-10T06:30:05;5.93;;;5.37;;
3523;SDS011;1776;53.330;11.498;2023-05-10T06:32:31;7.90;;;5.00;;
3523;SDS011;1776;53.330;11.498;2023-05-10T06:34:57;6.80;;;5.20;;
3523;SDS011;1776;53.330;11.498;2023-05-10T06:37:22;4.97;;;4.47;;
3523;SDS011;1776;53.330;11.498;2023-05-10T06:39:47;5.23;;;4.53;;
3523;SDS011;1776;53.330;11.498;2023-05-10T06:42:13;6.43;;;4.70;;
3523;SDS011;1776;53.330;11.498;2023-05-10T06:44:38;7.70;;;5.30;;
3523;SDS011;1776;53.330;11.498;2023-05-10T06:47:03;6.03;;;4.13;;
3523;SDS011;1776;53.330;11.498;2023-05-10T06:49:29;5.97;;;4.63;;
3523;SDS011;1776;53.330;11.498;2023-05-10T06:51:55;7.60;;;5.70;;
3523;SDS011;1776;53.330;11.498;2023-05-10T06:54:21;6.60;;;4.93;;
3523;SDS011;1776;53.330;11.498;2023-05-10T06:56:46;11.00;;;5.73;;
3523;SDS011;1776;53.330;11.498;2023-05-10T06:59:11;6.63;;;5.70;;
3523;SDS011;1776;53.330;11.498;2023-05-10T07:01:38;5.77;;;4.30;;
3523;SDS011;1776;53.330;11.498;2023-05-10T07:04:03;8.07;;;5.30;;
3523;SDS011;1776;53.330;11.498;2023-05-10T07:06:28;5.03;;;4.50;;
3523;SDS011;1776;53.330;11.498;2023-05-10T07:08:54;6.93;;;5.40;;
3523;SDS011;1776;53.330;11.498;2023-05-10T07:11:19;6.67;;;5.23;;
3523;SDS011;1776;53.330;11.498;2023-05-10T07:13:45;5.50;;;4.73;;
3523;SDS011;1776;53.330;11.498;2023-05-10T07:16:11;6.80;;;5.77;;
3523;SDS011;1776;53.330;11.498;2023-05-10T07:18:36;6.20;;;4.33;;
3523;SDS011;1776;53.330;11.498;2023-05-10T07:21:02;7.63;;;4.80;;
3523;SDS011;1776;53.330;11.498;2023-05-10T07:23:27;6.50;;;5.37;;
3523;SDS011;1776;53.330;11.498;2023-05-10T07:25:53;15.73;;;5.40;;
3523;SDS011;1776;53.330;11.498;2023-05-10T07:28:19;9.37;;;5.20;;
3523;SDS011;1776;53.330;11.498;2023-05-10T07:30:44;7.93;;;4.80;;
3523;SDS011;1776;53.330;11.498;2023-05-10T07:33:10;5.93;;;4.57;;
3523;SDS011;1776;53.330;11.498;2023-05-10T07:35:37;5.73;;;4.70;;
3523;SDS011;1776;53.330;11.498;2023-05-10T07:38:02;6.20;;;4.70;;
3523;SDS011;1776;53.330;11.498;2023-05-10T07:40:28;6.50;;;5.10;;
3523;SDS011;1776;53.330;11.498;2023-05-10T07:42:53;8.17;;;4.73;;
3523;SDS011;1776;53.330;11.498;2023-05-10T07:45:18;5.80;;;4.40;;
3523;SDS011;1776;53.330;11.498;2023-05-10T07:47:44;7.30;;;4.50;;
3523;SDS011;1776;53.330;11.498;2023-05-10T07:50:09;10.03;;;5.30;;
3523;SDS011;1776;53.330;11.498;2023-05-10T07:52:35;8.00;;;5.03;;
3523;SDS011;1776;53.330;11.498;2023-05-10T07:55:00;6.80;;;4.87;;
3523;SDS011;1776;53.330;11.498;2023-05-10T07:57:25;7.53;;;5.47;;
3523;SDS011;1776;53.330;11.498;2023-05-10T07:59:50;7.97;;;4.70;;
3523;SDS011;1776;53.330;11.498;2023-05-10T08:02:16;9.53;;;5.07;;
3523;SDS011;1776;53.330;11.498;2023-05-10T08:04:41;6.60;;;4.03;;
3523;SDS011;1776;53.330;11.498;2023-05-10T08:07:06;5.47;;;4.97;;
3523;SDS011;1776;53.330;11.498;2023-05-10T08:09:32;6.43;;;4.80;;
3523;SDS011;1776;53.330;11.498;2023-05-10T08:11:57;3.97;;;3.63;;
3523;SDS011;1776;53.330;11.498;2023-05-10T08:14:24;9.00;;;4.50;;
3523;SDS011;1776;53.330;11.498;2023-05-10T08:16:49;6.80;;;4.37;;
3523;SDS011;1776;53.330;11.498;2023-05-10T08:19:15;5.43;;;4.60;;
3523;SDS011;1776;53.330;11.498;2023-05-10T08:21:43;6.50;;;4.63;;
3523;SDS011;1776;53.330;11.498;2023-05-10T08:24:09;7.53;;;4.90;;
3523;SDS011;1776;53.330;11.498;2023-05-10T08:26:34;6.10;;;4.40;;
3523;SDS011;1776;53.330;11.498;2023-05-10T08:28:59;5.47;;;4.40;;
3523;SDS011;1776;53.330;11.498;2023-05-10T08:31:25;4.43;;;4.03;;
3523;SDS011;1776;53.330;11.498;2023-05-10T08:33:50;4.37;;;3.87;;
3523;SDS011;1776;53.330;11.498;2023-05-10T08:36:17;10.03;;;3.80;;
3523;SDS011;1776;53.330;11.498;2023-05-10T08:38:46;6.80;;;4.40;;
3523;SDS011;1776;53.330;11.498;2023-05-10T08:41:11;10.27;;;4.63;;
3523;SDS011;1776;53.330;11.498;2023-05-10T08:43:37;5.83;;;4.50;;
3523;SDS011;1776;53.330;11.498;2023-05-10T08:46:03;12.53;;;5.97;;
3523;SDS011;1776;53.330;11.498;2023-05-10T08:48:30;8.00;;;4.80;;
3523;SDS011;1776;53.330;11.498;2023-05-10T08:50:58;5.90;;;4.80;;
3523;SDS011;1776;53.330;11.498;2023-05-10T08:53:25;6.43;;;4.30;;
3523;SDS011;1776;53.330;11.498;2023-05-10T08:55:52;8.83;;;4.77;;
3523;SDS011;1776;53.330;11.498;2023-05-10T08:58:17;6.23;;;4.10;;
3523;SDS011;1776;53.330;11.498;2023-05-10T09:00:44;10.13;;;4.33;;
3523;SDS011;1776;53.330;11.498;2023-05-10T09:03:10;5.67;;;5.17;;
3523;SDS011;1776;53.330;11.498;2023-05-10T09:05:36;4.70;;;4.30;;
3523;SDS011;1776;53.330;11.498;2023-05-10T09:08:02;4.80;;;4.33;;
3523;SDS011;1776;53.330;11.498;2023-05-10T09:10:27;5.00;;;4.43;;
3523;SDS011;1776;53.330;11.498;2023-05-10T09:12:55;5.97;;;5.20;;
3523;SDS011;1776;53.330;11.498;2023-05-10T09:15:22;5.00;;;4.47;;
3523;SDS011;1776;53.330;11.498;2023-05-10T09:17:48;5.20;;;4.73;;
3523;SDS011;1776;53.330;11.498;2023-05-10T09:20:14;4.90;;;3.87;;
3523;SDS011;1776;53.330;11.498;2023-05-10T09:22:40;4.57;;;3.60;;
3523;SDS011;1776;53.330;11.498;2023-05-10T09:27:41;5.33;;;3.97;;
3523;SDS011;1776;53.330;11.498;2023-05-10T09:30:10;6.00;;;4.07;;
3523;SDS011;1776;53.330;11.498;2023-05-10T09:32:41;4.33;;;3.93;;
3523;SDS011;1776;53.330;11.498;2023-05-10T09:35:11;5.03;;;3.70;;
3523;SDS011;1776;53.330;11.498;2023-05-10T09:37:42;6.10;;;3.97;;
3523;SDS011;1776;53.330;11.498;2023-05-10T09:40:13;5.33;;;3.73;;
3523;SDS011;1776;53.330;11.498;2023-05-10T09:42:50;5.73;;;4.20;;
3523;SDS011;1776;53.330;11.498;2023-05-10T09:45:23;8.63;;;4.70;;
3523;SDS011;1776;53.330;11.498;2023-05-10T09:47:50;5.00;;;4.20;;
3523;SDS011;1776;53.330;11.498;2023-05-10T09:50:15;7.90;;;4.33;;
3523;SDS011;1776;53.330;11.498;2023-05-10T09:55:20;5.30;;;4.77;;
3523;SDS011;1776;53.330;11.498;2023-05-10T09:57:48;5.53;;;4.10;;
3523;SDS011;1776;53.330;11.498;2023-05-10T10:00:18;4.60;;;4.20;;
3523;SDS011;1776;53.330;11.498;2023-05-10T10:02:45;6.80;;;5.10;;
3523;SDS011;1776;53.330;11.498;2023-05-10T10:05:12;16.83;;;6.17;;
3523;SDS011;1776;53.330;11.498;2023-05-10T10:07:38;9.03;;;4.67;;
3523;SDS011;1776;53.330;11.498;2023-05-10T10:10:04;7.90;;;4.40;;
3523;SDS011;1776;53.330;11.498;2023-05-10T10:12:30;8.60;;;4.50;;
3523;SDS011;1776;53.330;11.498;2023-05-10T10:14:56;6.53;;;5.40;;
3523;SDS011;1776;53.330;11.498;2023-05-10T10:17:22;5.60;;;4.33;;
3523;SDS011;1776;53.330;11.498;2023-05-10T10:19:52;4.20;;;3.80;;
3523;SDS011;1776;53.330;11.498;2023-05-10T10:22:17;5.03;;;4.53;;
3523;SDS011;1776;53.330;11.498;2023-05-10T10:24:42;4.73;;;4.07;;
3523;SDS011;1776;53.330;11.498;2023-05-10T10:27:23;4.73;;;4.33;;
3523;SDS011;1776;53.330;11.498;2023-05-10T10:30:01;4.90;;;4.40;;
3523;SDS011;1776;53.330;11.498;2023-05-10T10:35:19;5.13;;;4.33;;
3523;SDS011;1776;53.330;11.498;2023-05-10T10:37:46;6.30;;;4.57;;
3523;SDS011;1776;53.330;11.498;2023-05-10T10:40:25;6.37;;;4.60;;
3523;SDS011;1776;53.330;11.498;2023-05-10T10:42:54;5.37;;;4.43;;
3523;SDS011;1776;53.330;11.498;2023-05-10T10:45:20;8.07;;;4.30;;
3523;SDS011;1776;53.330;11.498;2023-05-10T10:47:46;5.07;;;4.40;;
3523;SDS011;1776;53.330;11.498;2023-05-10T10:50:12;6.27;;;4.60;;
3523;SDS011;1776;53.330;11.498;2023-05-10T10:52:40;8.37;;;4.60;;
3523;SDS011;1776;53.330;11.498;2023-05-10T10:55:15;6.37;;;5.77;;
3523;SDS011;1776;53.330;11.498;2023-05-10T10:57:44;6.20;;;4.63;;
3523;SDS011;1776;53.330;11.498;2023-05-10T11:00:25;4.63;;;4.13;;
3523;SDS011;1776;53.330;11.498;2023-05-10T11:07:53;5.17;;;4.07;;
3523;SDS011;1776;53.330;11.498;2023-05-10T11:10:20;7.53;;;4.23;;
3523;SDS011;1776;53.330;11.498;2023-05-10T11:12:53;5.43;;;4.87;;
3523;SDS011;1776;53.330;11.498;2023-05-10T11:15:32;5.20;;;4.50;;
3523;SDS011;1776;53.330;11.498;2023-05-10T11:17:59;4.43;;;4.00;;
3523;SDS011;1776;53.330;11.498;2023-05-10T11:20:40;11.20;;;4.90;;
3523;SDS011;1776;53.330;11.498;2023-05-10T11:23:12;7.57;;;4.80;;
3523;SDS011;1776;53.330;11.498;2023-05-10T11:25:41;4.83;;;4.40;;
3523;SDS011;1776;53.330;11.498;2023-05-10T11:28:08;5.97;;;5.37;;
3523;SDS011;1776;53.330;11.498;2023-05-10T11:30:33;6.37;;;5.10;;
3523;SDS011;1776;53.330;11.498;2023-05-10T11:32:58;7.17;;;4.80;;
3523;SDS011;1776;53.330;11.498;2023-05-10T11:35:24;6.60;;;4.47;;
3523;SDS011;1776;53.330;11.498;2023-05-10T11:37:52;5.10;;;4.47;;
3523;SDS011;1776;53.330;11.498;2023-05-10T11:40:17;7.23;;;4.23;;
3523;SDS011;1776;53.330;11.498;2023-05-10T11:42:43;5.30;;;4.87;;
3523;SDS011;1776;53.330;11.498;2023-05-10T11:45:10;5.20;;;4.20;;
3523;SDS011;1776;53.330;11.498;2023-05-10T11:47:35;5.47;;;3.97;;
3523;SDS011;1776;53.330;11.498;2023-05-10T11:50:02;4.43;;;4.03;;
3523;SDS011;1776;53.330;11.498;2023-05-10T11:52:27;5.10;;;4.70;;
3523;SDS011;1776;53.330;11.498;2023-05-10T11:54:54;9.93;;;4.50;;
3523;SDS011;1776;53.330;11.498;2023-05-10T11:57:20;4.80;;;4.40;;
3523;SDS011;1776;53.330;11.498;2023-05-10T11:59:54;6.57;;;4.63;;
3523;SDS011;1776;53.330;11.498;2023-05-10T12:02:20;5.20;;;4.57;;
3523;SDS011;1776;53.330;11.498;2023-05-10T12:04:45;4.83;;;4.43;;
3523;SDS011;1776;53.330;11.498;2023-05-10T12:07:11;5.23;;;4.33;;
3523;SDS011;1776;53.330;11.498;2023-05-10T12:09:36;5.03;;;4.53;;
3523;SDS011;1776;53.330;11.498;2023-05-10T12:12:02;5.83;;;4.80;;
3523;SDS011;1776;53.330;11.498;2023-05-10T12:14:27;5.43;;;4.87;;
3523;SDS011;1776;53.330;11.498;2023-05-10T12:16:53;5.07;;;4.67;;
3523;SDS011;1776;53.330;11.498;2023-05-10T12:19:18;5.20;;;4.30;;
3523;SDS011;1776;53.330;11.498;2023-05-10T12:21:47;6.07;;;4.83;;
3523;SDS011;1776;53.330;11.498;2023-05-10T12:24:13;6.67;;;4.40;;
3523;SDS011;1776;53.330;11.498;2023-05-10T12:26:39;7.20;;;4.90;;
3523;SDS011;1776;53.330;11.498;2023-05-10T12:29:19;5.60;;;4.27;;
3523;SDS011;1776;53.330;11.498;2023-05-10T12:31:58;5.73;;;4.13;;
3523;SDS011;1776;53.330;11.498;2023-05-10T12:34:29;5.17;;;4.67;;
3523;SDS011;1776;53.330;11.498;2023-05-10T12:36:56;9.80;;;4.40;;
3523;SDS011;1776;53.330;11.498;2023-05-10T12:39:21;6.97;;;4.47;;
3523;SDS011;1776;53.330;11.498;2023-05-10T12:41:46;5.33;;;4.50;;
3523;SDS011;1776;53.330;11.498;2023-05-10T12:44:12;6.87;;;5.03;;
3523;SDS011;1776;53.330;11.498;2023-05-10T12:46:37;5.37;;;4.90;;
3523;SDS011;1776;53.330;11.498;2023-05-10T12:49:02;5.57;;;5.00;;
3523;SDS011;1776;53.330;11.498;2023-05-10T12:51:28;5.67;;;4.33;;
3523;SDS011;1776;53.330;11.498;2023-05-10T12:53:53;11.67;;;4.87;;
3523;SDS011;1776;53.330;11.498;2023-05-10T12:56:19;7.87;;;4.20;;
3523;SDS011;1776;53.330;11.498;2023-05-10T12:58:45;4.83;;;4.40;;
3523;SDS011;1776;53.330;11.498;2023-05-10T13:01:12;6.10;;;4.60;;
3523;SDS011;1776;53.330;11.498;2023-05-10T13:03:38;8.60;;;4.70;;
3523;SDS011;1776;53.330;11.498;2023-05-10T13:06:03;5.67;;;4.27;;
3523;SDS011;1776;53.330;11.498;2023-05-10T13:08:29;7.73;;;5.50;;
3523;SDS011;1776;53.330;11.498;2023-05-10T13:10:58;4.63;;;4.20;;
3523;SDS011;1776;53.330;11.498;2023-05-10T13:13:23;10.73;;;4.87;;
3523;SDS011;1776;53.330;11.498;2023-05-10T13:15:48;6.17;;;5.03;;
3523;SDS011;1776;53.330;11.498;2023-05-10T13:18:13;5.63;;;5.13;;
3523;SDS011;1776;53.330;11.498;2023-05-10T13:20:39;6.50;;;5.60;;
3523;SDS011;1776;53.330;11.498;2023-05-10T13:23:04;8.60;;;6.57;;
3523;SDS011;1776;53.330;11.498;2023-05-10T13:25:29;8.17;;;5.63;;
3523;SDS011;1776;53.330;11.498;2023-05-10T13:27:55;12.10;;;6.60;;
3523;SDS011;1776;53.330;11.498;2023-05-10T13:30:20;7.93;;;6.23;;
3523;SDS011;1776;53.330;11.498;2023-05-10T13:32:46;6.03;;;4.80;;
3523;SDS011;1776;53.330;11.498;2023-05-10T13:35:11;8.80;;;6.00;;
3523;SDS011;1776;53.330;11.498;2023-05-10T13:37:36;7.50;;;5.90;;
3523;SDS011;1776;53.330;11.498;2023-05-10T13:40:02;10.70;;;5.87;;
3523;SDS011;1776;53.330;11.498;2023-05-10T13:42:28;10.80;;;6.17;;
3523;SDS011;1776;53.330;11.498;2023-05-10T13:44:54;6.10;;;4.80;;
3523;SDS011;1776;53.330;11.498;2023-05-10T13:47:19;8.47;;;5.90;;
3523;SDS011;1776;53.330;11.498;2023-05-10T13:49:46;9.87;;;7.00;;
3523;SDS011;1776;53.330;11.498;2023-05-10T13:52:12;9.53;;;5.90;;
3523;SDS011;1776;53.330;11.498;2023-05-10T13:54:37;6.67;;;5.13;;
3523;SDS011;1776;53.330;11.498;2023-05-10T13:57:03;8.33;;;4.90;;
3523;SDS011;1776;53.330;11.498;2023-05-10T13:59:28;7.00;;;5.10;;
3523;SDS011;1776;53.330;11.498;2023-05-10T14:01:54;7.43;;;6.27;;
3523;SDS011;1776;53.330;11.498;2023-05-10T14:04:19;9.13;;;6.33;;
3523;SDS011;1776;53.330;11.498;2023-05-10T14:06:45;8.47;;;6.40;;
3523;SDS011;1776;53.330;11.498;2023-05-10T14:09:10;9.00;;;6.53;;
3523;SDS011;1776;53.330;11.498;2023-05-10T14:11:36;8.30;;;7.20;;
3523;SDS011;1776;53.330;11.498;2023-05-10T14:14:01;8.87;;;6.47;;
3523;SDS011;1776;53.330;11.498;2023-05-10T14:16:26;8.47;;;6.97;;
3523;SDS011;1776;53.330;11.498;2023-05-10T14:18:52;8.30;;;6.00;;
3523;SDS011;1776;53.330;11.498;2023-05-10T14:21:17;12.90;;;7.67;;
3523;SDS011;1776;53.330;11.498;2023-05-10T14:23:43;9.17;;;6.57;;
3523;SDS011;1776;53.330;11.498;2023-05-10T14:26:08;9.80;;;6.60;;
3523;SDS011;1776;53.330;11.498;2023-05-10T14:28:33;10.20;;;7.50;;
3523;SDS011;1776;53.330;11.498;2023-05-10T14:30:58;8.17;;;6.30;;
3523;SDS011;1776;53.330;11.498;2023-05-10T14:33:24;6.97;;;5.90;;
3523;SDS011;1776;53.330;11.498;2023-05-10T14:35:49;9.50;;;7.77;;
3523;SDS011;1776;53.330;11.498;2023-05-10T14:38:15;7.00;;;6.13;;
3523;SDS011;1776;53.330;11.498;2023-05-10T14:40:41;10.13;;;5.80;;
3523;SDS011;1776;53.330;11.498;2023-05-10T14:43:07;11.80;;;7.33;;
3523;SDS011;1776;53.330;11.498;2023-05-10T14:45:33;7.10;;;5.43;;
3523;SDS011;1776;53.330;11.498;2023-05-10T14:47:58;6.77;;;6.17;;
3523;SDS011;1776;53.330;11.498;2023-05-10T14:50:24;8.17;;;6.93;;
3523;SDS011;1776;53.330;11.498;2023-05-10T14:52:49;12.87;;;6.43;;
3523;SDS011;1776;53.330;11.498;2023-05-10T14:55:15;7.20;;;6.40;;
3523;SDS011;1776;53.330;11.498;2023-05-10T14:57:40;9.90;;;6.33;;
3523;SDS011;1776;53.330;11.498;2023-05-10T15:00:06;7.53;;;6.07;;
3523;SDS011;1776;53.330;11.498;2023-05-10T15:02:32;6.50;;;5.80;;
3523;SDS011;1776;53.330;11.498;2023-05-10T15:04:57;8.07;;;7.27;;
3523;SDS011;1776;53.330;11.498;2023-05-10T15:07:23;6.00;;;5.50;;
3523;SDS011;1776;53.330;11.498;2023-05-10T15:09:48;9.40;;;8.13;;
3523;SDS011;1776;53.330;11.498;2023-05-10T15:12:14;9.50;;;6.70;;
3523;SDS011;1776;53.330;11.498;2023-05-10T15:14:40;6.17;;;5.57;;
3523;SDS011;1776;53.330;11.498;2023-05-10T15:17:05;7.40;;;5.30;;
3523;SDS011;1776;53.330;11.498;2023-05-10T15:19:31;5.33;;;4.83;;